Time;durP1;ratioP1;P1;durP2;ratioP2;P2;SDS_P1;SDS_P2;PMS_P1;PMS_P2;Temp;Humidity;BMP_temperature;BMP_pressure;BME280_temperature;BME280_humidity;BME280_pressure;Samples;Min_cycle;Max_cycle;Signal;HPM_P1;HPM_P2
2021/10/30 00:02:20;;;;;;;6.40;5.83;;;;;;;10.09;81.25;100059.47;5025389;28;20216;-75
2021/10/30 00:04:47;;;;;;;7.23;6.70;;;;;;;10.02;79.69;100136.09;5023622;28;20207;-76
2021/10/30 00:07:15;;;;;;;7.47;6.87;;;;;;;10.06;78.54;100163.81;5025422;28;20194;-76
2021/10/30 00:09:42;;;;;;;6.83;6.23;;;;;;;10.13;77.05;100235.84;5023398;28;20214;-76
2021/10/30 00:12:09;;;;;;;7.47;6.87;;;;;;;10.27;76.80;100240.78;5024230;28;20289;-76
2021/10/30 00:14:36;;;;;;;7.00;6.43;;;;;;;10.36;75.60;100281.47;5024636;28;20198;-76
2021/10/30 00:17:03;;;;;;;6.27;5.73;;;;;;;10.41;74.98;100306.59;5025753;28;20295;-76
2021/10/30 00:19:29;;;;;;;6.37;5.77;;;;;;;10.48;74.49;100312.53;5022892;28;20555;-76
2021/10/30 00:21:56;;;;;;;7.67;6.33;;;;;;;10.49;74.62;100316.88;5030170;28;20847;-76
2021/10/30 00:24:22;;;;;;;7.80;7.00;;;;;;;10.54;74.68;100317.63;5026624;28;20618;-75
2021/10/30 00:26:50;;;;;;;7.37;6.80;;;;;;;10.53;74.79;100319.38;5024229;28;20623;-75
2021/10/30 00:29:16;;;;;;;10.23;6.10;;;;;;;10.59;74.47;100318.41;5022895;28;20616;-76
2021/10/30 00:31:43;;;;;;;6.43;5.93;;;;;;;10.59;74.58;100321.00;5024939;28;20228;-75
2021/10/30 00:34:09;;;;;;;6.93;6.43;;;;;;;10.52;74.11;100338.56;5025482;28;20206;-76
2021/10/30 00:36:35;;;;;;;7.03;6.43;;;;;;;10.59;74.35;100318.41;5023396;28;20204;-76
2021/10/30 00:39:02;;;;;;;6.93;6.33;;;;;;;10.57;73.71;100341.06;5023223;28;20747;-76
2021/10/30 00:41:29;;;;;;;7.10;6.50;;;;;;;10.59;74.59;100313.19;5025255;28;20271;-77
2021/10/30 00:43:56;;;;;;;6.97;6.43;;;;;;;10.55;73.53;100337.63;5023424;28;20285;-75
2021/10/30 00:46:23;;;;;;;7.37;6.73;;;;;;;10.61;74.19;100337.50;5029062;28;20248;-76
2021/10/30 00:48:49;;;;;;;6.97;6.27;;;;;;;10.65;74.79;100323.50;5027252;28;20203;-76
2021/10/30 00:51:16;;;;;;;7.20;6.67;;;;;;;10.67;74.29;100313.03;5023973;28;20310;-75
2021/10/30 00:53:42;;;;;;;7.23;6.63;;;;;;;10.66;73.93;100329.56;5022656;28;20277;-77
2021/10/30 00:56:10;;;;;;;7.40;6.67;;;;;;;10.64;74.53;100313.94;5023702;28;20287;-76
2021/10/30 00:58:37;;;;;;;7.17;6.57;;;;;;;10.61;74.42;100326.22;5020164;28;20203;-76
2021/10/30 01:01:06;;;;;;;7.70;6.97;;;;;;;10.57;74.07;100324.56;5019178;28;20219;-76
2021/10/30 01:03:33;;;;;;;6.87;6.27;;;;;;;10.61;75.18;100292.28;5022032;28;20203;-75
2021/10/30 01:06:00;;;;;;;7.00;6.40;;;;;;;10.50;74.38;100327.28;5020353;28;20198;-75
2021/10/30 01:08:27;;;;;;;7.33;6.60;;;;;;;10.45;74.44;100307.41;5019246;28;20526;-77
2021/10/30 01:10:53;;;;;;;7.20;6.63;;;;;;;10.46;74.00;100322.16;5021478;28;20273;-76
2021/10/30 01:13:20;;;;;;;7.83;7.13;;;;;;;10.49;74.51;100306.44;5019438;28;20639;-76
2021/10/30 01:15:47;;;;;;;7.83;7.03;;;;;;;10.53;74.45;100315.94;5037397;28;20624;-76
2021/10/30 01:18:14;;;;;;;8.63;6.20;;;;;;;10.55;75.02;100297.63;5025744;28;20202;-77
2021/10/30 01:20:42;;;;;;;6.83;6.33;;;;;;;10.55;74.92;100301.09;5033793;28;20277;-76
2021/10/30 01:23:08;;;;;;;8.00;7.30;;;;;;;10.58;74.30;100310.59;5033678;28;20207;-75
2021/10/30 01:25:35;;;;;;;7.33;6.73;;;;;;;10.55;75.90;100274.13;5029571;28;20205;-77
2021/10/30 01:28:02;;;;;;;7.57;7.00;;;;;;;10.47;75.44;100263.88;5021406;28;20206;-75
2021/10/30 01:30:28;;;;;;;7.87;7.07;;;;;;;10.48;74.95;100281.22;5030091;28;20243;-76
2021/10/30 01:32:57;;;;;;;6.77;6.27;;;;;;;10.53;74.67;100292.44;5013521;28;20731;-75
2021/10/30 01:35:31;;;;;;;6.13;5.73;;;;;;;10.51;75.45;100284.63;5014135;28;20211;-76
2021/10/30 01:38:00;;;;;;;6.17;5.67;;;;;;;10.53;75.00;100280.25;5013632;28;20211;-77
2021/10/30 01:40:26;;;;;;;8.03;7.33;;;;;;;10.55;74.49;100300.25;5013809;28;20238;-77
2021/10/30 01:42:54;;;;;;;7.40;6.80;;;;;;;10.60;74.63;100301.84;5013610;28;20215;-77
2021/10/30 01:45:21;;;;;;;7.90;7.30;;;;;;;10.60;74.77;100293.16;5037832;28;20201;-76
2021/10/30 01:47:47;;;;;;;7.20;6.63;;;;;;;10.61;74.91;100280.06;5033259;28;20208;-77
2021/10/30 01:50:14;;;;;;;7.93;7.33;;;;;;;10.57;74.15;100291.47;5032951;28;20209;-77
2021/10/30 01:52:41;;;;;;;8.53;7.77;;;;;;;10.53;74.28;100297.66;5033259;28;20226;-76
2021/10/30 01:55:10;;;;;;;7.80;7.10;;;;;;;10.54;74.58;100299.34;5033500;28;20268;-76
2021/10/30 01:57:36;;;;;;;7.87;7.17;;;;;;;10.55;74.92;100271.53;5032522;28;20618;-76
2021/10/30 02:00:04;;;;;;;7.37;6.67;;;;;;;10.57;75.52;100269.75;5031555;28;20202;-75
2021/10/30 02:02:31;;;;;;;7.60;7.00;;;;;;;10.57;74.42;100283.66;5032713;28;20248;-77
2021/10/30 02:04:57;;;;;;;6.90;6.30;;;;;;;10.58;74.39;100293.19;5031211;28;20213;-76
2021/10/30 02:07:23;;;;;;;7.93;7.33;;;;;;;10.63;75.19;100264.38;5012901;28;20218;-76
2021/10/30 02:09:50;;;;;;;6.97;6.37;;;;;;;10.63;74.31;100283.50;5013158;28;20208;-76
2021/10/30 02:12:18;;;;;;;6.60;6.10;;;;;;;10.63;75.30;100265.25;5012983;28;20230;-77
2021/10/30 02:14:44;;;;;;;7.67;6.97;;;;;;;10.63;75.04;100254.78;5027406;28;20211;-76
2021/10/30 02:17:11;;;;;;;8.87;8.07;;;;;;;10.65;74.16;100271.28;5030615;28;20199;-76
2021/10/30 02:19:37;;;;;;;8.30;7.60;;;;;;;10.62;74.77;100253.06;5032120;28;20650;-76
2021/10/30 02:22:04;;;;;;;7.00;6.50;;;;;;;10.64;76.04;100229.53;5032575;28;20280;-76
2021/10/30 02:24:31;;;;;;;7.43;6.83;;;;;;;10.58;75.60;100227.06;5032384;28;20618;-77
2021/10/30 02:26:58;;;;;;;7.10;6.60;;;;;;;10.49;75.37;100215.09;5032596;28;20703;-76
2021/10/30 02:29:25;;;;;;;7.43;6.83;;;;;;;10.45;76.21;100205.63;5032145;28;20302;-76
2021/10/30 02:31:52;;;;;;;7.73;7.13;;;;;;;10.48;75.65;100205.53;5032396;28;20778;-76
2021/10/30 02:34:18;;;;;;;6.90;6.30;;;;;;;10.42;77.34;100156.97;5016535;28;20313;-76
2021/10/30 02:36:45;;;;;;;7.80;7.07;;;;;;;10.40;77.40;100142.25;5024303;28;20202;-76
2021/10/30 02:39:11;;;;;;;7.87;7.27;;;;;;;10.33;76.63;100173.69;5031945;28;20253;-76
2021/10/30 02:41:38;;;;;;;6.97;6.47;;;;;;;10.30;78.37;100111.13;5032306;28;20230;-77
2021/10/30 02:44:04;;;;;;;8.73;8.03;;;;;;;10.27;76.15;100165.97;5034022;28;20253;-76
2021/10/30 02:46:33;;;;;;;7.73;7.07;;;;;;;10.27;75.99;100199.88;5037741;28;20613;-76
2021/10/30 02:48:59;;;;;;;7.83;7.20;;;;;;;10.31;76.25;100204.16;5031395;28;20198;-77
2021/10/30 02:51:25;;;;;;;7.63;7.03;;;;;;;10.33;76.68;100189.34;5030371;28;20228;-76
2021/10/30 02:53:52;;;;;;;7.53;6.93;;;;;;;10.38;78.24;100126.59;5027248;28;20271;-76
2021/10/30 02:56:18;;;;;;;7.37;6.70;;;;;;;10.43;77.06;100173.50;5012275;28;20212;-77
2021/10/30 02:58:44;;;;;;;7.03;6.43;;;;;;;10.46;77.54;100155.13;5012162;28;20205;-76
2021/10/30 03:01:11;;;;;;;8.10;7.40;;;;;;;10.44;77.30;100141.28;5012347;28;20231;-76
2021/10/30 03:03:39;;;;;;;8.30;7.57;;;;;;;10.44;77.28;100142.13;5012251;28;20741;-77
2021/10/30 03:06:06;;;;;;;7.13;6.53;;;;;;;10.48;78.49;100098.56;5011971;28;20560;-76
2021/10/30 03:08:32;;;;;;;7.63;6.93;;;;;;;10.35;77.33;100121.47;5016677;28;20229;-76
2021/10/30 03:10:59;;;;;;;10.83;8.43;;;;;;;10.27;77.58;100142.50;5030266;28;20226;-76
2021/10/30 03:13:26;;;;;;;7.60;6.40;;;;;;;10.28;79.29;100084.19;5012039;28;20232;-76
2021/10/30 03:15:53;;;;;;;7.50;6.90;;;;;;;10.25;77.94;100097.31;5035829;28;20218;-76
2021/10/30 03:18:19;;;;;;;7.90;7.10;;;;;;;10.24;77.30;100126.91;5031611;28;20213;-76
2021/10/30 03:20:47;;;;;;;9.40;8.40;;;;;;;10.23;78.17;100096.50;5031635;28;20235;-76
2021/10/30 03:23:13;;;;;;;8.57;7.87;;;;;;;10.19;77.13;100118.34;5031844;28;20199;-76
2021/10/30 03:25:39;;;;;;;7.73;7.13;;;;;;;10.22;77.95;100117.41;5027062;28;20194;-76
2021/10/30 03:28:06;;;;;;;7.67;6.90;;;;;;;10.12;78.53;100111.53;5010723;28;20214;-76
2021/10/30 03:30:33;;;;;;;8.20;7.50;;;;;;;10.10;77.33;100134.19;5030618;28;20649;-76
2021/10/30 03:33:00;;;;;;;8.70;8.00;;;;;;;10.13;77.11;100141.94;5031637;28;20230;-76
2021/10/30 03:35:26;;;;;;;8.10;7.50;;;;;;;10.14;76.99;100154.94;5031483;28;20215;-75
2021/10/30 03:37:54;;;;;;;7.73;7.10;;;;;;;10.16;77.77;100107.09;5031422;28;20206;-76
2021/10/30 03:40:21;;;;;;;9.93;9.13;;;;;;;10.15;74.75;100221.00;5031503;28;20226;-75
2021/10/30 03:42:47;;;;;;;9.27;8.47;;;;;;;10.18;74.48;100251.38;5030669;28;20583;-76
2021/10/30 03:45:14;;;;;;;10.17;9.33;;;;;;;10.12;74.11;100260.19;5030680;28;20229;-77
2021/10/30 03:47:40;;;;;;;9.83;8.93;;;;;;;10.11;74.63;100235.88;5031057;28;20206;-76
2021/10/30 03:50:07;;;;;;;10.67;8.93;;;;;;;10.16;74.80;100214.91;5031341;28;20256;-77
2021/10/30 03:52:33;;;;;;;7.83;7.17;;;;;;;10.22;75.99;100165.19;5031256;28;20216;-76
2021/10/30 03:55:01;;;;;;;8.80;8.00;;;;;;;10.11;74.93;100194.13;5031406;28;20284;-76
2021/10/30 03:57:27;;;;;;;9.13;8.27;;;;;;;10.15;74.78;100205.38;5031482;28;20213;-77
2021/10/30 03:59:54;;;;;;;9.40;8.70;;;;;;;10.16;74.14;100214.91;5031122;28;20272;-77
2021/10/30 04:02:21;;;;;;;10.03;9.23;;;;;;;10.10;72.94;100241.94;5016929;28;20349;-75
2021/10/30 04:04:47;;;;;;;10.30;9.30;;;;;;;10.11;73.88;100224.59;5022399;28;20255;-77
2021/10/30 04:07:14;;;;;;;10.20;9.37;;;;;;;10.14;73.89;100217.53;5031314;28;20566;-77
2021/10/30 04:09:40;;;;;;;9.93;8.93;;;;;;;10.13;73.27;100238.44;5030674;28;20336;-76
2021/10/30 04:12:09;;;;;;;9.70;8.90;;;;;;;10.14;73.10;100243.59;5030850;28;20290;-76
2021/10/30 04:14:36;;;;;;;11.03;8.20;;;;;;;10.13;72.55;100260.16;5037115;28;20290;-76
2021/10/30 04:17:03;;;;;;;9.23;8.53;;;;;;;10.16;72.22;100268.81;5032060;28;20619;-76
2021/10/30 04:19:29;;;;;;;9.50;8.73;;;;;;;10.17;70.78;100297.47;5020162;28;20203;-76
2021/10/30 04:21:56;;;;;;;9.87;8.97;;;;;;;10.19;71.66;100285.28;5011348;28;20243;-76
2021/10/30 04:24:22;;;;;;;10.30;9.33;;;;;;;10.16;70.45;100300.13;5011189;28;20609;-77
2021/10/30 04:26:49;;;;;;;8.57;7.87;;;;;;;10.20;68.88;100378.25;5011275;28;20214;-77
2021/10/30 04:29:16;;;;;;;9.57;8.87;;;;;;;10.22;70.59;100331.28;5011154;28;20257;-76
2021/10/30 04:31:43;;;;;;;9.37;8.57;;;;;;;10.27;70.35;100343.38;5011453;28;20300;-76
2021/10/30 04:34:18;;;;;;;10.07;8.70;;;;;;;10.21;69.25;100361.75;5011068;28;20234;-76
2021/10/30 04:36:46;;;;;;;8.50;7.77;;;;;;;10.24;69.00;100382.53;5018686;28;20215;-76
2021/10/30 04:39:12;;;;;;;9.30;8.60;;;;;;;10.29;69.09;100372.03;5027866;28;20203;-76
2021/10/30 04:41:41;;;;;;;9.93;9.10;;;;;;;10.30;67.84;100408.53;5014965;28;20233;-76
2021/10/30 04:44:08;;;;;;;10.07;9.17;;;;;;;10.30;68.55;100397.25;5019110;28;20580;-76
2021/10/30 04:46:35;;;;;;;9.70;8.90;;;;;;;10.34;68.05;100397.16;5039698;28;20202;-76
2021/10/30 04:49:02;;;;;;;10.20;9.30;;;;;;;10.41;68.33;100368.38;5034162;28;20626;-77
2021/10/30 04:51:28;;;;;;;10.00;8.97;;;;;;;10.46;69.05;100379.56;5073292;22;20307;-78
2021/10/30 04:53:55;;;;;;;9.40;8.60;;;;;;;10.47;69.15;100358.66;5028424;28;20248;-79
2021/10/30 04:56:21;;;;;;;8.83;8.13;;;;;;;10.42;67.64;100406.59;5036791;28;20214;-78
2021/10/30 04:58:48;;;;;;;8.97;8.17;;;;;;;10.43;67.99;100396.16;5037157;28;20210;-78
2021/10/30 05:01:17;;;;;;;9.07;8.27;;;;;;;10.38;66.88;100418.00;5031572;28;20281;-79
2021/10/30 05:03:46;;;;;;;9.27;8.47;;;;;;;10.43;67.69;100416.16;5016518;28;20199;-78
2021/10/30 05:06:13;;;;;;;11.07;8.47;;;;;;;10.45;68.36;100388.28;5017080;28;20303;-78
2021/10/30 05:08:40;;;;;;;8.80;7.93;;;;;;;10.42;66.61;100450.97;5017125;28;20566;-78
2021/10/30 05:11:07;;;;;;;9.87;8.83;;;;;;;10.41;66.89;100425.78;5016016;28;20222;-78
2021/10/30 05:13:34;;;;;;;9.80;9.00;;;;;;;10.43;66.17;100457.91;5015847;28;20747;-78
2021/10/30 05:16:00;;;;;;;9.00;8.27;;;;;;;10.42;67.27;100420.50;5016581;28;20207;-78
2021/10/30 05:18:26;;;;;;;8.37;7.53;;;;;;;10.41;67.46;100391.84;5015942;28;20208;-78
2021/10/30 05:20:54;;;;;;;8.03;7.43;;;;;;;10.46;69.62;100325.63;5015895;28;20203;-78
2021/10/30 05:23:21;;;;;;;9.03;8.13;;;;;;;10.36;67.01;100373.66;5016087;28;20224;-78
2021/10/30 05:25:48;;;;;;;9.00;8.30;;;;;;;10.31;66.61;100409.44;5016705;28;20196;-79
2021/10/30 05:28:20;;;;;;;9.23;8.40;;;;;;;10.42;66.53;100370.06;5015628;28;20239;-78
2021/10/30 05:30:47;;;;;;;8.53;7.83;;;;;;;10.45;66.20;100410.03;5015626;28;20306;-78
2021/10/30 05:33:13;;;;;;;10.57;8.57;;;;;;;10.48;66.98;100396.03;5016354;28;20238;-78
2021/10/30 05:35:40;;;;;;;8.00;7.40;;;;;;;10.48;66.27;100398.66;5016570;28;20772;-78
2021/10/30 05:38:07;;;;;;;7.93;7.23;;;;;;;10.53;66.81;100422.94;5015834;28;20628;-78
2021/10/30 05:40:35;;;;;;;7.47;6.87;;;;;;;10.56;66.16;100440.28;5015534;28;20199;-78
2021/10/30 05:43:01;;;;;;;8.00;7.30;;;;;;;10.58;67.01;100405.41;5016394;28;20662;-79
2021/10/30 05:45:28;;;;;;;7.70;7.00;;;;;;;10.62;68.26;100362.69;5016243;28;20687;-79
2021/10/30 05:47:54;;;;;;;8.20;7.50;;;;;;;10.63;69.09;100333.09;5016433;28;20261;-77
2021/10/30 05:50:20;;;;;;;8.40;7.73;;;;;;;10.64;68.89;100319.16;5014963;28;20206;-79
2021/10/30 05:52:47;;;;;;;7.73;7.10;;;;;;;10.64;70.39;100268.69;5016456;28;20231;-79
2021/10/30 05:55:15;;;;;;;7.77;7.17;;;;;;;10.53;69.53;100282.00;5016270;28;20768;-78
2021/10/30 05:57:41;;;;;;;7.90;7.10;;;;;;;10.49;70.58;100251.63;5015445;28;20233;-78
2021/10/30 06:00:08;;;;;;;7.97;6.63;;;;;;;10.47;71.87;100203.84;5015284;28;20199;-78
2021/10/30 06:02:35;;;;;;;8.30;7.47;;;;;;;10.27;69.64;100282.50;5016388;28;20227;-78
2021/10/30 06:05:01;;;;;;;8.33;7.63;;;;;;;10.34;71.39;100242.38;5016535;28;20253;-78
2021/10/30 06:07:28;;;;;;;7.87;7.17;;;;;;;10.41;72.80;100183.97;5015783;28;20243;-79
2021/10/30 06:09:54;;;;;;;9.23;8.43;;;;;;;10.23;69.47;100299.97;5015601;28;20213;-78
2021/10/30 06:12:22;;;;;;;7.83;7.13;;;;;;;10.32;71.76;100226.75;5015702;28;20231;-78
2021/10/30 06:14:48;;;;;;;8.70;7.93;;;;;;;10.23;69.48;100265.22;5014436;28;20224;-78
2021/10/30 06:17:14;;;;;;;8.67;7.97;;;;;;;10.25;71.15;100268.63;5015192;28;20198;-78
2021/10/30 06:19:41;;;;;;;9.70;8.80;;;;;;;10.29;71.93;100262.47;5015249;28;20291;-78
2021/10/30 06:22:07;;;;;;;9.17;8.40;;;;;;;10.36;72.23;100237.13;5015093;28;20231;-77
2021/10/30 06:24:33;;;;;;;9.33;8.53;;;;;;;10.40;72.41;100190.06;5015157;28;20266;-78
2021/10/30 06:27:00;;;;;;;10.47;9.50;;;;;;;10.36;69.33;100251.03;5015507;28;20297;-77
2021/10/30 06:29:29;;;;;;;10.93;10.00;;;;;;;10.35;68.74;100311.94;5014785;28;20574;-79
2021/10/30 06:31:55;;;;;;;11.23;10.33;;;;;;;10.24;66.99;100413.00;5014761;28;20274;-78
2021/10/30 06:34:22;;;;;;;10.80;9.90;;;;;;;10.27;66.67;100426.00;5002916;28;20294;-78
2021/10/30 06:36:48;;;;;;;11.23;10.33;;;;;;;10.35;67.11;100411.09;4994408;28;20702;-78
2021/10/30 06:39:14;;;;;;;10.70;9.80;;;;;;;10.37;67.39;100393.66;4995264;28;20203;-78
2021/10/30 06:41:41;;;;;;;10.23;9.17;;;;;;;10.46;65.25;100455.25;4996711;28;20231;-79
2021/10/30 06:44:07;;;;;;;9.07;8.37;;;;;;;10.53;65.13;100464.69;4998257;28;20201;-78
2021/10/30 06:46:35;;;;;;;10.10;9.03;;;;;;;10.58;65.25;100465.44;5013304;28;20207;-78
2021/10/30 06:49:01;;;;;;;8.93;8.13;;;;;;;10.63;65.48;100460.16;5014734;28;20213;-78
2021/10/30 06:51:28;;;;;;;9.83;9.03;;;;;;;10.60;65.48;100442.78;5007116;28;20243;-78
2021/10/30 06:53:54;;;;;;;8.63;7.83;;;;;;;10.59;66.45;100421.97;4995273;28;20616;-78
2021/10/30 06:56:21;;;;;;;8.53;7.73;;;;;;;10.65;66.73;100398.34;4995647;28;20746;-78
2021/10/30 06:58:47;;;;;;;8.17;7.37;;;;;;;10.67;69.28;100313.88;4995139;28;20209;-81
2021/10/30 07:01:15;;;;;;;8.57;7.97;;;;;;;10.60;67.63;100338.38;4994399;28;20227;-79
2021/10/30 07:03:43;;;;;;;7.93;7.23;;;;;;;10.65;68.04;100338.31;4995721;28;20617;-79
2021/10/30 07:06:10;;;;;;;8.50;7.70;;;;;;;10.69;69.18;100283.38;4996671;28;20208;-79
2021/10/30 07:08:36;;;;;;;8.50;7.60;;;;;;;10.71;70.57;100238.97;5014050;28;20258;-79
2021/10/30 07:11:03;;;;;;;7.50;6.80;;;;;;;10.69;71.65;100181.56;5015293;28;20231;-78
2021/10/30 07:13:29;;;;;;;8.07;7.37;;;;;;;10.67;72.23;100153.78;5014210;28;20257;-80
2021/10/30 07:15:55;;;;;;;8.53;7.73;;;;;;;10.66;72.83;100133.78;5015942;28;20234;-80
2021/10/30 07:18:22;;;;;;;7.63;7.13;;;;;;;10.58;72.90;100136.56;5014911;28;20211;-79
2021/10/30 07:20:49;;;;;;;8.07;7.47;;;;;;;10.51;72.90;100138.50;5015613;28;20212;-79
2021/10/30 07:23:17;;;;;;;7.70;6.90;;;;;;;10.51;73.57;100124.59;5010127;28;20203;-79
2021/10/30 07:25:43;;;;;;;7.57;6.90;;;;;;;10.45;74.11;100094.28;4995324;28;20250;-79
2021/10/30 07:28:10;;;;;;;8.17;7.23;;;;;;;10.39;72.59;100148.38;4995515;28;20207;-77
2021/10/30 07:30:36;;;;;;;8.03;7.23;;;;;;;10.20;71.91;100185.25;5000074;28;20207;-78
2021/10/30 07:33:02;;;;;;;7.33;6.67;;;;;;;10.27;72.83;100172.94;5003865;28;20199;-78
2021/10/30 07:35:29;;;;;;;7.03;6.43;;;;;;;10.36;77.53;100026.66;5002460;28;20275;-78
2021/10/30 07:37:58;;;;;;;7.43;6.83;;;;;;;10.67;79.22;99867.50;4997064;28;20203;-81
2021/10/30 07:40:26;;;;;;;6.60;6.00;;;;;;;10.97;80.97;99806.59;5014061;28;20590;-79
2021/10/30 07:42:53;;;;;;;7.83;7.23;;;;;;;11.01;76.33;99980.59;5013538;28;20292;-78
2021/10/30 07:45:20;;;;;;;6.63;6.13;;;;;;;11.14;80.53;99827.84;5008715;28;20261;-79
2021/10/30 07:47:47;;;;;;;7.90;6.13;;;;;;;11.26;81.39;99850.13;5014721;28;20609;-79
2021/10/30 07:50:14;;;;;;;6.33;5.80;;;;;;;11.06;75.12;100021.34;5008808;28;20301;-79
2021/10/30 07:52:40;;;;;;;7.00;5.30;;;;;;;11.10;75.01;99985.56;5004425;28;20231;-78
2021/10/30 07:55:09;;;;;;;6.10;5.60;;;;;;;11.01;75.42;100065.00;5006066;28;20593;-78
2021/10/30 07:57:36;;;;;;;8.93;6.27;;;;;;;10.95;73.42;100142.66;5008607;28;20252;-78
2021/10/30 08:00:03;;;;;;;6.97;6.33;;;;;;;11.05;73.62;100134.53;4994885;28;20208;-78
2021/10/30 08:02:29;;;;;;;6.13;5.63;;;;;;;11.19;75.03;100045.38;4997705;28;20251;-78
2021/10/30 08:04:56;;;;;;;5.63;5.20;;;;;;;11.27;75.58;100063.44;4997487;28;20736;-79
2021/10/30 08:07:22;;;;;;;5.83;5.33;;;;;;;11.32;74.28;100061.56;4994596;28;20682;-78
2021/10/30 08:09:49;;;;;;;5.93;5.40;;;;;;;11.33;74.32;100078.94;4994611;28;20207;-78
2021/10/30 08:12:17;;;;;;;5.93;5.43;;;;;;;11.35;75.82;100035.34;5004467;28;20224;-78
2021/10/30 08:14:44;;;;;;;6.30;5.73;;;;;;;11.30;75.66;100006.72;5005870;28;20223;-78
2021/10/30 08:17:11;;;;;;;5.50;5.10;;;;;;;11.27;76.08;100012.03;5016234;28;20211;-78
2021/10/30 08:19:37;;;;;;;6.23;5.83;;;;;;;11.30;76.46;99983.22;5014020;28;20276;-78
2021/10/30 08:22:04;;;;;;;6.83;6.17;;;;;;;11.42;79.26;99905.38;5018032;28;20284;-78
2021/10/30 08:24:31;;;;;;;5.93;5.43;;;;;;;11.39;77.64;99936.81;5016887;28;20211;-78
2021/10/30 08:26:57;;;;;;;29.87;27.47;;;;;;;11.26;76.09;100022.56;5017032;28;20265;-78
2021/10/30 08:29:25;;;;;;;24.63;22.43;;;;;;;11.47;78.02;99966.16;5016650;28;20265;-78
2021/10/30 08:31:53;;;;;;;12.60;11.80;;;;;;;11.50;75.27;100034.06;5009675;28;20238;-78
2021/10/30 08:34:19;;;;;;;18.17;16.83;;;;;;;11.38;74.10;100084.91;4997291;28;20281;-78
2021/10/30 08:36:45;;;;;;;7.90;7.23;;;;;;;11.41;73.19;100116.16;4996933;28;20211;-77
2021/10/30 08:39:12;;;;;;;6.93;6.40;;;;;;;11.44;72.58;100131.78;5000873;28;20662;-78
2021/10/30 08:41:38;;;;;;;9.93;7.70;;;;;;;11.59;73.23;100127.03;5038073;23;20273;-80
2021/10/30 08:44:05;;;;;;;8.63;8.03;;;;;;;11.68;73.67;100108.47;5054957;28;20268;-81
2021/10/30 08:46:33;;;;;;;37.50;33.97;;;;;;;11.47;71.27;100172.66;5055093;28;20670;-80
2021/10/30 08:49:01;;;;;;;19.27;17.90;;;;;;;11.62;72.20;100163.53;5049189;28;20205;-79
2021/10/30 08:51:28;;;;;;;8.83;8.13;;;;;;;11.75;72.00;100159.66;5017630;28;20272;-79
2021/10/30 08:53:55;;;;;;;9.57;8.87;;;;;;;11.76;72.71;100122.16;5035256;28;20218;-79
2021/10/30 08:56:22;;;;;;;8.93;8.07;;;;;;;11.80;73.67;100071.50;5035091;28;20889;-79
2021/10/30 08:58:49;;;;;;;9.90;8.43;;;;;;;11.88;74.00;100051.19;5034796;28;20210;-79
2021/10/30 09:01:17;;;;;;;8.87;8.03;;;;;;;11.96;75.05;100000.44;5034701;28;20226;-79
2021/10/30 09:03:57;;;;;;;7.37;6.83;;;;;;;11.97;76.24;99952.44;5034457;28;20214;-79
2021/10/30 09:06:32;;;;;;;7.77;7.07;;;;;;;11.97;77.37;99914.09;5034150;28;20244;-79
2021/10/30 09:09:13;;;;;;;7.07;6.47;;;;;;;12.02;78.66;99875.53;5036071;28;20607;-81
2021/10/30 09:11:41;;;;;;;6.57;5.97;;;;;;;12.07;78.17;99876.25;5035234;28;20289;-79
2021/10/30 09:14:19;;;;;;;6.77;6.27;;;;;;;12.12;76.69;99928.41;5020396;28;20294;-79
2021/10/30 09:17:17;;;;;;;5.93;5.43;;;;;;;12.14;74.50;99980.69;5017918;28;20227;-81
2021/10/30 09:19:47;;;;;;;6.70;6.20;;;;;;;12.20;74.44;99990.94;5025941;28;20252;-79
2021/10/30 09:22:15;;;;;;;6.13;5.63;;;;;;;12.28;76.40;99928.75;5028052;28;20269;-80
2021/10/30 09:24:52;;;;;;;6.57;6.00;;;;;;;12.29;77.19;99899.06;5040607;28;20301;-81
2021/10/30 09:27:22;;;;;;;7.17;6.17;;;;;;;12.24;75.75;99930.59;5030029;28;20258;-80
2021/10/30 09:29:56;;;;;;;5.83;5.43;;;;;;;12.24;75.33;99930.59;5028186;28;20227;-80
2021/10/30 09:32:27;;;;;;;6.73;6.07;;;;;;;12.21;76.35;99922.88;5028627;28;20215;-80
2021/10/30 09:34:56;;;;;;;6.50;5.83;;;;;;;12.19;76.67;99898.53;5027887;28;20242;-81
2021/10/30 09:37:24;;;;;;;6.83;6.33;;;;;;;12.24;76.71;99880.03;5028023;28;20213;-80
2021/10/30 09:40:22;;;;;;;6.20;5.70;;;;;;;12.28;73.16;99961.00;5035476;28;20641;-82
2021/10/30 09:42:51;;;;;;;7.27;5.83;;;;;;;12.30;71.90;100036.84;5049160;28;20611;-83
2021/10/30 09:45:18;;;;;;;11.80;5.87;;;;;;;12.40;73.11;100032.16;5048045;28;20210;-83
2021/10/30 09:47:57;;;;;;;6.67;6.07;;;;;;;12.46;70.56;100118.34;5049798;28;20236;-82
2021/10/30 09:50:27;;;;;;;7.60;6.50;;;;;;;12.46;68.94;100184.63;5048044;28;20233;-82
2021/10/30 09:52:55;;;;;;;8.30;7.50;;;;;;;12.48;67.49;100216.84;5050592;28;20191;-83
2021/10/30 09:55:28;;;;;;;7.23;6.63;;;;;;;12.62;67.57;100216.44;5050408;28;20259;-82
2021/10/30 09:58:00;;;;;;;11.47;10.47;;;;;;;12.57;68.33;100189.56;5050410;28;20285;-83
2021/10/30 10:00:27;;;;;;;11.43;10.43;;;;;;;12.59;65.76;100276.78;5050655;28;20220;-82
2021/10/30 10:02:58;;;;;;;9.43;8.53;;;;;;;12.66;68.82;100188.41;5050904;28;20211;-81
2021/10/30 10:05:28;;;;;;;9.20;8.30;;;;;;;12.66;69.94;100134.25;5053349;28;20215;-84
2021/10/30 10:07:56;;;;;;;7.93;7.30;;;;;;;12.74;69.49;100141.03;5055608;28;20203;-81
2021/10/30 10:10:23;;;;;;;7.40;6.70;;;;;;;12.77;69.54;100126.06;5053709;28;20281;-82
2021/10/30 10:12:52;;;;;;;7.40;6.70;;;;;;;12.80;70.71;100070.09;5042673;28;20208;-81
2021/10/30 10:15:21;;;;;;;7.50;6.90;;;;;;;12.87;69.97;100089.94;5041629;28;20293;-82
2021/10/30 10:17:48;;;;;;;7.57;6.93;;;;;;;12.86;70.62;100076.00;5042548;28;20212;-81
2021/10/30 10:20:15;;;;;;;7.13;6.53;;;;;;;12.90;70.24;100054.03;5041371;28;20226;-82
2021/10/30 10:22:43;;;;;;;7.63;6.97;;;;;;;12.93;68.89;100107.22;5039290;28;20208;-81
2021/10/30 10:25:27;;;;;;;7.63;6.87;;;;;;;13.00;68.50;100085.13;5040570;28;20207;-81
2021/10/30 10:27:54;;;;;;;7.20;6.60;;;;;;;13.01;68.38;100089.47;5040516;28;20203;-83
2021/10/30 10:30:21;;;;;;;7.27;6.67;;;;;;;12.99;66.23;100167.28;5039764;28;20228;-81
2021/10/30 10:32:47;;;;;;;7.60;6.90;;;;;;;12.97;66.52;100195.28;5041190;28;20233;-80
2021/10/30 10:35:16;;;;;;;7.43;6.73;;;;;;;12.93;66.56;100167.47;5041013;28;20226;-81
2021/10/30 10:37:51;;;;;;;7.70;7.03;;;;;;;12.93;66.56;100146.53;5041404;28;20202;-81
2021/10/30 10:40:31;;;;;;;7.73;7.20;;;;;;;12.95;67.15;100150.78;5038592;28;20229;-78
2021/10/30 10:42:57;;;;;;;6.90;6.40;;;;;;;12.99;69.33;100071.19;5040637;28;20219;-81
2021/10/30 10:45:24;;;;;;;6.70;6.07;;;;;;;12.95;69.96;100053.84;5040384;28;20212;-79
2021/10/30 10:48:01;;;;;;;6.80;6.30;;;;;;;12.95;70.43;100011.94;5040648;28;20232;-81
2021/10/30 10:50:34;;;;;;;7.20;6.50;;;;;;;12.97;68.34;100062.50;5038803;28;20326;-80
2021/10/30 10:53:29;;;;;;;7.23;6.63;;;;;;;13.00;67.57;100120.06;5018837;28;20234;-80
2021/10/30 10:56:12;;;;;;;6.73;6.23;;;;;;;13.01;66.90;100134.00;5019701;28;20230;-80
2021/10/30 10:59:13;;;;;;;6.87;6.33;;;;;;;13.05;67.79;100120.75;5019262;28;20208;-80
2021/10/30 11:01:42;;;;;;;6.40;5.90;;;;;;;13.11;68.17;100091.72;5019144;28;20254;-80
2021/10/30 11:04:14;;;;;;;6.70;6.10;;;;;;;13.09;68.10;100097.91;5015926;28;20213;-81
2021/10/30 11:06:46;;;;;;;6.50;6.00;;;;;;;13.10;68.55;100083.88;5017283;28;20240;-81
2021/10/30 11:09:17;;;;;;;5.93;5.40;;;;;;;13.04;68.04;100126.03;5029790;28;20226;-80
2021/10/30 11:11:45;;;;;;;5.07;4.67;;;;;;;13.07;64.64;100327.72;5038966;28;20203;-77
2021/10/30 11:14:13;;;;;;;5.90;5.40;;;;;;;13.06;61.40;100402.88;5038663;28;20210;-80
2021/10/30 11:16:45;;;;;;;5.33;4.93;;;;;;;13.06;59.01;100422.94;5038545;28;20743;-80
2021/10/30 11:19:24;;;;;;;6.00;5.37;;;;;;;13.08;59.23;100494.50;5029637;28;20632;-80
2021/10/30 11:21:57;;;;;;;5.50;5.10;;;;;;;13.14;57.84;100541.53;5038017;28;20207;-78
2021/10/30 11:24:29;;;;;;;5.77;5.27;;;;;;;13.16;58.90;100504.78;5038392;28;20572;-79
2021/10/30 11:26:58;;;;;;;5.83;5.13;;;;;;;13.11;59.14;100490.06;5037925;28;20567;-78
2021/10/30 11:29:26;;;;;;;5.50;5.10;;;;;;;13.22;61.93;100377.03;5038016;28;20626;-78